KCFV - Coffeyville, Kansas, USA
Distance from station: ENE 93mi, 150km
Updated: Thu, May-19-2022 9:52am CDT
Light rain, Overcast
Light rain, Overcast
 Wind from N
Wind: N 6 mph , 9 km/h
Temperature: 66°F , 19°C
Dew Point: 66°F , 19°C
Humidity: 100%
Barometer: 29.64 inHg , 1003.7 hPa
Summary: Light Rain
Clouds: Overcast
Visibility: 10 miles , 16 km
Cloud details: Few Clouds 2000 ft
Mostly Cloudy 5000 ft
Overcast 7000 ft
2022/05/19 14:52 KCFV 191452Z AUTO 36005KT 10SM -RA FEW020 BKN050 OVC070 19/19 A2964 RMK AO2 SLP032 P0013 60025 T01940189 58007
KIDP - Independence, Kansas, USA
Distance from station: NE 86mi, 138km
Updated: Thu, May-19-2022 9:55am CDT
Partly Cloudy
Partly Cloudy
 Wind from calm
Wind: Calm
Temperature: 66°F , 19°C
Barometer: 29.66 inHg , 1004.4 hPa
Clouds: Partly Cloudy
Visibility: 10 miles , 16 km
Cloud details: Partly Cloudy 4800 ft
2022/05/19 14:55 KIDP 191455Z AUTO 00000KT 10SM SCT048 19/ A2966 RMK AO2 P0012 T0192//// 60032
 
KIAB - Mcconnell Afb, Kansas, USA
Distance from station: N 84mi, 135km
Updated: Thu, May-19-2022 9:56am CDT
Overcast
Overcast
 Wind from S
Wind: S 13 mph , 20 km/h
Temperature: 68°F , 20°C
Dew Point: 64°F , 18°C
Humidity: 88%
Barometer: 29.67 inHg , 1004.7 hPa
Clouds: Overcast
Visibility: 10 miles , 16 km
Cloud details: Overcast 800 ft
2022/05/19 14:56 KIAB 191456Z AUTO 17011KT 10SM OVC008 20/18 A2967 RMK AO2 SLP039 T02000179 50025 $
KICT - Wichita, Kansas, USA
Distance from station: NNW 88mi, 142km
Updated: Thu, May-19-2022 9:53am CDT
Mostly Cloudy
Mostly Cloudy
 Wind from S
Wind: S 12 mph , 19 km/h
Temperature: 70°F , 21°C
Dew Point: 64°F , 18°C
Humidity: 83%
Barometer: 29.66 inHg , 1004.4 hPa
Clouds: Mostly Cloudy
Visibility: 9 miles , 14 km
Cloud details: Mostly Cloudy 1500 ft
Mostly Cloudy 8000 ft
2022/05/19 14:53 KICT 191453Z 17010KT 9SM BKN015 BKN080 21/18 A2966 RMK AO2 SLP030 T02060178 51025
 
KAAO - Wichita/Jabara, Kansas, USA
Distance from station: N 93mi, 149km
Updated: Thu, May-19-2022 10:11am CDT
Mostly Cloudy
Mostly Cloudy
 Wind from S
Wind: S 15 mph , 24 km/h
Temperature: 68°F , 20°C
Dew Point: 63°F , 17°C
Humidity: 83%
Barometer: 29.65 inHg , 1004.1 hPa
Clouds: Mostly Cloudy
Visibility: 10 miles , 16 km
Cloud details: Mostly Cloudy 1000 ft
2022/05/19 15:11 KAAO 191511Z AUTO 17013KT 10SM BKN010 20/17 A2965 RMK AO2 T02000172
KWLD - Winfield/Arkansa, Kansas, USA
Distance from station: N 52mi, 84km
Updated: Thu, May-19-2022 10:17am CDT
Partly Cloudy
Partly Cloudy
 Wind from SSE
Wind: SSE 15 mph , 24 km/h
Temperature: 72°F , 22°C
Dew Point: 66°F , 19°C
Humidity: 83%
Barometer: 29.69 inHg , 1005.4 hPa
Clouds: Partly Cloudy
Visibility: 10 miles , 16 km
Cloud details: Partly Cloudy 700 ft
2022/05/19 15:17 KWLD 191517Z AUTO 16013KT 10SM SCT007 22/19 A2969 RMK AO2 T02170194
 
KAVK - Alva, Oklahoma, USA
Distance from station: WNW 94mi, 152km
Updated: Thu, May-19-2022 10:20am CDT
Clear
Clear
 Wind from SW
Wind: SW 13 mph , 20 km/h, Gust: 20 mph , 31 km/h
Temperature: 77°F , 25°C
Dew Point: 61°F , 16°C
Humidity: 57%
Barometer: 29.69 inHg , 1005.4 hPa
Clouds: Clear
Visibility: 10 miles , 16 km
2022/05/19 15:20 KAVK 191520Z AUTO 22011G17KT 10SM CLR 25/16 A2969 RMK AO2
KBVO - Bartlesville, Oklahoma, USA
Distance from station: ENE 61mi, 98km
Updated: Thu, May-19-2022 9:53am CDT
Partly Cloudy
Partly Cloudy
 Wind from calm
Wind: Calm
Temperature: 70°F , 21°C
Dew Point: 66°F , 19°C
Humidity: 88%
Barometer: 29.67 inHg , 1004.7 hPa
Clouds: Partly Cloudy
Visibility: 10 miles , 16 km
Cloud details: Few Clouds 3900 ft
Few Clouds 10000 ft
Partly Cloudy 12000 ft
2022/05/19 14:53 KBVO 191453Z AUTO 00000KT 10SM FEW039 FEW100 SCT120 21/19 A2967 RMK AO2 SLP037 60002 T02060194 58001
 
KBKN - Blackwell, Oklahoma, USA
Distance from station: NW 29mi, 47km
Updated: Thu, May-19-2022 10:15am CDT
Clear
Clear
 Wind from S
Wind: S 7 mph , 11 km/h
Temperature: 73°F , 23°C
Dew Point: 66°F , 19°C
Humidity: 78%
Barometer: 29.68 inHg , 1005.1 hPa
Clouds: Clear
Visibility: 10 miles , 16 km
2022/05/19 15:15 KBKN 191515Z AUTO 17006KT 10SM CLR 23/19 A2968 RMK AO2
KGCM - Claremore, Oklahoma, USA
Distance from station: E 86mi, 138km
Updated: Thu, May-19-2022 9:50am CDT
Clear
Clear
 Wind from SW
Wind: SW 9 mph , 15 km/h
Temperature: 73°F , 23°C
Dew Point: 68°F , 20°C
Humidity: 83%
Barometer: 29.68 inHg , 1005.1 hPa
Clouds: Clear
Visibility: 10 miles , 16 km
2022/05/19 14:50 KGCM 191450Z AUTO 23008KT 10SM CLR 23/20 A2968 RMK AO2
 
KCQB - Chandler, Oklahoma, USA
Distance from station: SSE 50mi, 80km
Updated: Thu, May-19-2022 9:50am CDT
Clear
Clear
 Wind from SSW
Wind: SSW 13 mph , 20 km/h
Temperature: 77°F , 25°C
Dew Point: 68°F , 20°C
Humidity: 74%
Barometer: 29.70 inHg , 1005.8 hPa
Clouds: Clear
Visibility: 7 miles , 11 km
2022/05/19 14:50 KCQB 191450Z AUTO 20011KT 7SM CLR 25/20 A2970 RMK AO2 T02540203
KCUH - Cushing, Oklahoma, USA
Distance from station: SSE 35mi, 57km
Updated: Thu, May-19-2022 10:15am CDT
Clear
Clear
 Wind from SSW
Wind: SSW 15 mph , 24 km/h, Gust: 18 mph , 30 km/h
Temperature: 79°F , 26°C
Dew Point: 66°F , 19°C
Humidity: 65%
Barometer: 29.67 inHg , 1004.7 hPa
Clouds: Clear
Visibility: 10 miles , 16 km
2022/05/19 15:15 KCUH 191515Z AUTO 21013G16KT 10SM CLR 26/19 A2967 RMK AO2 T02550194
 
KRQO - El Reno Muni, Oklahoma, USA
Distance from station: SW 85mi, 137km
Updated: Thu, May-19-2022 9:55am CDT
Clear
Clear
 Wind from S
Wind: S 9 mph , 15 km/h
Temperature: 81°F , 27°C
Heat Index: 83°F , 28°C
Dew Point: 64°F , 18°C
Humidity: 58%
Barometer: 29.71 inHg , 1006.1 hPa
Clouds: Clear
Visibility: 10 miles , 16 km
2022/05/19 14:55 KRQO 191455Z AUTO 17008KT 10SM CLR 27/18 A2971 RMK AO2 T02670178
KEND - Enid/Vance Afb, Oklahoma, USA
Distance from station: W 50mi, 81km
Updated: Thu, May-19-2022 9:56am CDT
Clear
Clear
 Wind from SW
Wind: SW 16 mph , 26 km/h
Temperature: 77°F , 25°C
Dew Point: 63°F , 17°C
Humidity: 61%
Barometer: 29.68 inHg , 1005.1 hPa
Clouds: Clear
Visibility: 10 miles , 16 km
2022/05/19 14:56 KEND 191456Z AUTO 22014KT 10SM CLR 25/17 A2968 RMK AO2 SLP038 T02450167 50007 $
 
KWDG - Enid/Woodring, Oklahoma, USA
Distance from station: W 42mi, 67km
Updated: Thu, May-19-2022 9:55am CDT
Partly Cloudy
Partly Cloudy
 Wind from SSW
Wind: SSW 17 mph , 28 km/h
Temperature: 75°F , 24°C
Dew Point: 63°F , 17°C
Humidity: 65%
Barometer: 29.66 inHg , 1004.4 hPa
Clouds: Partly Cloudy
Visibility: 10 miles , 16 km
Cloud details: Partly Cloudy 20000 ft
2022/05/19 14:55 KWDG 191455Z 21015KT 10SM SCT200 24/17 A2966
KGOK - Guthrie, Oklahoma, USA
Distance from station: SSW 44mi, 71km
Updated: Thu, May-19-2022 9:53am CDT
Clear
Clear
 Wind from S
Wind: S 13 mph , 20 km/h
Temperature: 77°F , 25°C
Dew Point: 64°F , 18°C
Humidity: 65%
Barometer: 29.69 inHg , 1005.4 hPa
Clouds: Clear
Visibility: 10 miles , 16 km
2022/05/19 14:53 KGOK 191453Z AUTO 19011KT 10SM CLR 25/18 A2969 RMK AO2 SLP042 T02500178 50008
 
KOUN - Norman/Westheime, Oklahoma, USA
Distance from station: SSW 84mi, 136km
Updated: Thu, May-19-2022 9:45am CDT
Clear
Clear
 Wind from S
Wind: S 13 mph , 20 km/h
Temperature: 81°F , 27°C
Heat Index: 83°F , 28°C
Dew Point: 64°F , 18°C
Humidity: 58%
Barometer: 29.69 inHg , 1005.4 hPa
Clouds: Clear
Visibility: 10 miles , 16 km
2022/05/19 14:45 KOUN 191445Z 17011KT 10SM CLR 27/18 A2969
KOKC - Oklahoma City, Oklahoma, USA
Distance from station: SSW 78mi, 126km
Updated: Thu, May-19-2022 9:52am CDT
Partly Cloudy
Partly Cloudy
 Wind from S
Wind: S 9 mph , 15 km/h
Temperature: 79°F , 26°C
Dew Point: 66°F , 19°C
Humidity: 65%
Barometer: 29.70 inHg , 1005.8 hPa
Clouds: Partly Cloudy
Visibility: 10 miles , 16 km
Cloud details: Partly Cloudy 25000 ft
2022/05/19 14:52 KOKC 191452Z 18008KT 10SM SCT250 26/19 A2970 RMK AO2 SLP039 T02610194 50006
 
KPWA - Okla City/Wiley, Oklahoma, USA
Distance from station: SSW 70mi, 113km
Updated: Thu, May-19-2022 9:53am CDT
Clear
Clear
 Wind from S
Wind: S 10 mph , 17 km/h
Temperature: 81°F , 27°C
Heat Index: 83°F , 28°C
Dew Point: 64°F , 18°C
Humidity: 58%
Barometer: 29.69 inHg , 1005.4 hPa
Clouds: Clear
Visibility: 10 miles , 16 km
2022/05/19 14:53 KPWA 191453Z 18009KT 10SM CLR 27/18 A2969 RMK AO2 SLP036 T02670183 50003
KRCE - Okla City/Page, Oklahoma, USA
Distance from station: SW 78mi, 126km
Updated: Thu, May-19-2022 10:15am CDT
Clear
Clear
 Wind from S
Wind: S 12 mph , 19 km/h
Temperature: 81°F , 27°C
Heat Index: 83°F , 28°C
Dew Point: 66°F , 19°C
Humidity: 62%
Barometer: 29.69 inHg , 1005.4 hPa
Clouds: Clear
Visibility: 10 miles , 16 km
2022/05/19 15:15 KRCE 191515Z AUTO 19010KT 10SM CLR 27/19 A2969 RMK AO2
 
KOKM - Okmulgee, Oklahoma, USA
Distance from station: SE 79mi, 127km
Updated: Thu, May-19-2022 9:55am CDT
Partly Cloudy
Partly Cloudy
 Wind from SSW
Wind: SSW 18 mph , 30 km/h, Gust: 29 mph , 46 km/h
Temperature: 77°F , 25°C
Dew Point: 70°F , 21°C
Humidity: 79%
Barometer: 29.69 inHg , 1005.4 hPa
Clouds: Partly Cloudy
Visibility: 10 miles , 16 km
Cloud details: Partly Cloudy 2100 ft
2022/05/19 14:55 KOKM 191455Z AUTO 20016G25KT 10SM SCT021 25/21 A2969 RMK AO2 T02470207
KPNC - Ponca City, Oklahoma, USA
Distance from station: N 22mi, 36km
Updated: Mon, May-16-2022 5:53am CDT
NOT Current
Clear
Clear
 Wind from NE
Wind: NE 6 mph , 9 km/h
Temperature: 57°F , 14°C
Dew Point: 54°F , 12°C
Humidity: 88%
Barometer: 30.04 inHg , 1017.3 hPa
Clouds: Clear
Visibility: 10 miles , 16 km
2022/05/16 10:53 KPNC 161053Z AUTO 04005KT 10SM CLR 14/12 A3004 RMK AO2 SLP162 T01440122
 
KSNL - Shawnee, Oklahoma, USA
Distance from station: S 74mi, 119km
Updated: Thu, May-19-2022 9:55am CDT
Clear
Clear
 Wind from S
Wind: S 13 mph , 20 km/h
Temperature: 77°F , 25°C
Dew Point: 64°F , 18°C
Humidity: 65%
Barometer: 29.70 inHg , 1005.8 hPa
Clouds: Clear
Visibility: 10 miles , 16 km
2022/05/19 14:55 KSNL 191455Z AUTO 18011KT 10SM CLR 25/18 A2970 RMK AO2 T02520177
KSWO - Stillwater, Oklahoma, USA
Distance from station: S 17mi, 28km
Updated: Thu, May-19-2022 9:53am CDT
Clear
Clear
 Wind from S
Wind: S 12 mph , 19 km/h
Temperature: 77°F , 25°C
Dew Point: 64°F , 18°C
Humidity: 65%
Barometer: 29.68 inHg , 1005.1 hPa
Clouds: Clear
Visibility: 10 miles , 16 km
2022/05/19 14:53 KSWO 191453Z 19010KT 10SM CLR 25/18 A2968 RMK AO2 SLP036 T02500178 50010
 
KTIK - Tinker Afb, Oklahoma, USA
Distance from station: SSW 72mi, 115km
Updated: Thu, May-19-2022 9:56am CDT
Clear
Clear
 Wind from S
Wind: S 7 mph , 11 km/h
Temperature: 79°F , 26°C
Dew Point: 66°F , 19°C
Humidity: 65%
Barometer: 29.68 inHg , 1005.1 hPa
Clouds: Clear
Visibility: 10 miles , 16 km
2022/05/19 14:56 KTIK 191456Z AUTO 18006KT 10SM CLR 26/19 A2968 RMK AO2 SLP044 T02600186 50006
KTUL - Tulsa, Oklahoma, USA
Distance from station: ESE 65mi, 105km
Updated: Thu, May-19-2022 9:53am CDT
Mostly Cloudy
Mostly Cloudy
 Wind from SSW
Wind: SSW 10 mph , 17 km/h, Gust: 22 mph , 35 km/h
Temperature: 79°F , 26°C
Dew Point: 68°F , 20°C
Humidity: 70%
Barometer: 29.66 inHg , 1004.4 hPa
Clouds: Mostly Cloudy
Visibility: 10 miles , 16 km
Cloud details: Few Clouds 2000 ft
Mostly Cloudy 15000 ft
Mostly Cloudy 25000 ft
2022/05/19 14:53 KTUL 191453Z 21009G19KT 190V250 10SM FEW020 BKN150 BKN250 26/20 A2966 RMK AO2 SLP035 T02560200 55009

Metar display script from Saratoga-Weather.org